createdAt,value
2019-04-26T00:00:03.341Z,0.00
2019-04-26T00:01:03.328Z,0.00
2019-04-26T00:02:03.413Z,0.00
2019-04-26T00:03:03.393Z,0.00
2019-04-26T00:04:03.424Z,0.00
2019-04-26T00:05:03.374Z,0.00
2019-04-26T00:06:03.361Z,0.00
2019-04-26T00:07:03.351Z,0.00
2019-04-26T00:08:03.346Z,0.00
2019-04-26T00:09:03.342Z,0.00
2019-04-26T00:10:03.363Z,0.00
2019-04-26T00:11:03.308Z,0.00
2019-04-26T00:12:03.289Z,0.00
2019-04-26T00:13:18.309Z,0.00
2019-04-26T00:14:03.294Z,0.00
2019-04-26T00:15:03.168Z,0.00
2019-04-26T00:16:03.201Z,0.00
2019-04-26T00:17:03.343Z,0.00
2019-04-26T00:18:03.252Z,0.00
2019-04-26T00:19:03.242Z,0.00
2019-04-26T00:20:03.235Z,0.00
2019-04-26T00:21:03.219Z,0.00
2019-04-26T00:22:03.242Z,0.00
2019-04-26T00:23:03.189Z,0.00
2019-04-26T00:24:03.181Z,0.00
2019-04-26T00:25:03.174Z,0.00
2019-04-26T00:26:03.067Z,0.00
2019-04-26T00:27:03.155Z,0.00
2019-04-26T00:28:03.169Z,0.00
2019-04-26T00:29:03.133Z,0.00
2019-04-26T00:30:03.025Z,0.00
2019-04-26T00:31:03.106Z,0.00
2019-04-26T00:32:03.101Z,0.00
2019-04-26T00:33:03.088Z,0.00
2019-04-26T00:34:03.115Z,0.00
2019-04-26T00:35:03.065Z,0.00
2019-04-26T00:36:03.034Z,0.00
2019-04-26T00:37:03.034Z,0.00
2019-04-26T00:38:03.048Z,0.00
2019-04-26T00:39:03.018Z,0.00
2019-04-26T00:40:03.037Z,0.00
2019-04-26T00:41:03.007Z,0.00
2019-04-26T00:42:02.985Z,0.00
2019-04-26T00:43:03.000Z,0.00
2019-04-26T00:44:02.957Z,0.00
2019-04-26T00:45:02.961Z,0.00
2019-04-26T00:46:02.982Z,0.00
2019-04-26T00:47:02.933Z,0.00
2019-04-26T00:48:02.917Z,0.00
2019-04-26T00:49:02.907Z,0.00
2019-04-26T00:50:02.901Z,0.00
2019-04-26T00:51:02.882Z,0.00
2019-04-26T00:52:02.904Z,0.00
2019-04-26T00:53:02.871Z,0.00
2019-04-26T00:54:02.857Z,0.00
2019-04-26T00:55:02.849Z,0.00
2019-04-26T00:56:02.883Z,0.00
2019-04-26T00:57:02.845Z,0.00
2019-04-26T00:58:02.836Z,0.00
2019-04-26T00:59:02.795Z,0.00
2019-04-26T01:00:02.769Z,0.00
2019-04-26T01:01:02.779Z,0.00
2019-04-26T01:02:02.772Z,0.00
2019-04-26T01:03:02.771Z,0.00
2019-04-26T01:04:02.730Z,0.00
2019-04-26T01:05:02.740Z,0.00
2019-04-26T01:06:02.713Z,0.00
2019-04-26T01:07:02.692Z,0.00
2019-04-26T01:08:02.707Z,0.00
2019-04-26T01:09:02.711Z,0.00
2019-04-26T01:10:02.685Z,0.00
2019-04-26T01:11:02.653Z,0.00
2019-04-26T01:12:02.698Z,0.00
2019-04-26T01:13:02.635Z,0.00
2019-04-26T01:14:02.616Z,0.00
2019-04-26T01:15:02.643Z,0.00
2019-04-26T01:16:02.599Z,0.00
2019-04-26T01:17:02.579Z,0.00
2019-04-26T01:18:02.574Z,0.00
2019-04-26T01:19:02.573Z,0.00
2019-04-26T01:20:02.554Z,0.00
2019-04-26T01:21:02.578Z,0.00
2019-04-26T01:22:02.533Z,0.00
2019-04-26T01:23:02.520Z,0.00
2019-04-26T01:24:02.511Z,0.00
2019-04-26T01:25:02.519Z,0.00
2019-04-26T01:26:02.396Z,0.00
2019-04-26T01:27:02.506Z,0.00
2019-04-26T01:28:02.468Z,0.00
2019-04-26T01:29:02.472Z,0.00
2019-04-26T01:30:02.444Z,0.00
2019-04-26T01:31:02.427Z,0.00
2019-04-26T01:32:02.418Z,0.00
2019-04-26T01:33:02.463Z,0.00
2019-04-26T01:34:17.738Z,0.00
2019-04-26T01:35:37.892Z,0.00
2019-04-26T01:36:12.294Z,0.00
2019-04-26T01:37:03.427Z,0.00
2019-04-26T01:38:02.373Z,0.00
2019-04-26T01:39:02.381Z,0.00
2019-04-26T01:40:02.357Z,0.00
2019-04-26T01:41:02.325Z,0.00
2019-04-26T01:42:02.328Z,0.00
2019-04-26T01:43:02.362Z,0.00
2019-04-26T01:44:02.299Z,0.00
2019-04-26T01:45:02.284Z,0.00
2019-04-26T01:46:02.283Z,0.00
2019-04-26T01:47:02.261Z,0.00
2019-04-26T01:48:02.251Z,0.00
2019-04-26T01:49:02.272Z,0.00
2019-04-26T01:50:02.267Z,0.00
2019-04-26T01:51:02.208Z,0.00
2019-04-26T01:52:02.207Z,0.00
2019-04-26T01:53:02.207Z,0.00
2019-04-26T01:54:02.184Z,0.00
2019-04-26T01:55:02.175Z,0.00
2019-04-26T01:56:02.191Z,0.00
2019-04-26T01:57:02.194Z,0.00
2019-04-26T01:58:02.151Z,0.00
2019-04-26T01:59:02.142Z,0.00
2019-04-26T02:00:02.148Z,0.00
2019-04-26T02:01:02.141Z,0.00
2019-04-26T02:02:02.133Z,0.00
2019-04-26T02:03:02.128Z,0.00
2019-04-26T02:04:02.073Z,0.00
2019-04-26T02:05:02.083Z,0.00
2019-04-26T02:06:02.059Z,0.00
2019-04-26T02:07:02.055Z,0.00
2019-04-26T02:08:02.086Z,0.00
2019-04-26T02:09:08.992Z,0.00
2019-04-26T02:10:02.007Z,0.00
2019-04-26T02:11:02.005Z,0.00
2019-04-26T02:12:02.004Z,0.00
2019-04-26T02:13:01.992Z,0.00
2019-04-26T02:14:02.018Z,0.00
2019-04-26T02:15:01.970Z,0.00
2019-04-26T02:16:01.957Z,0.00
2019-04-26T02:17:01.950Z,0.00
2019-04-26T02:18:01.930Z,0.00
2019-04-26T02:19:01.918Z,0.00
2019-04-26T02:20:01.942Z,0.00
2019-04-26T02:21:01.902Z,0.00
2019-04-26T02:22:01.891Z,0.00
2019-04-26T02:23:01.878Z,0.00
2019-04-26T02:24:01.860Z,0.00
2019-04-26T02:25:01.862Z,0.00
2019-04-26T02:26:01.875Z,0.00
2019-04-26T02:27:01.861Z,0.00
2019-04-26T02:28:01.817Z,0.00
2019-04-26T02:29:01.812Z,0.00
2019-04-26T02:30:01.821Z,0.00
2019-04-26T02:31:01.821Z,0.00
2019-04-26T02:32:01.787Z,0.00
2019-04-26T02:33:01.770Z,0.00
2019-04-26T02:34:01.751Z,0.00
2019-04-26T02:35:01.760Z,0.00
2019-04-26T02:36:01.738Z,0.00
2019-04-26T02:37:01.761Z,0.00
2019-04-26T02:38:01.746Z,0.00
2019-04-26T02:39:01.697Z,0.00
2019-04-26T02:40:01.712Z,0.00
2019-04-26T02:41:01.680Z,0.00
2019-04-26T02:42:01.674Z,0.00
2019-04-26T02:43:01.690Z,0.00
2019-04-26T02:44:01.643Z,0.00
2019-04-26T02:45:01.639Z,0.00
2019-04-26T02:46:01.604Z,0.00
2019-04-26T02:47:01.619Z,0.00
2019-04-26T02:48:01.618Z,0.00
2019-04-26T02:49:01.623Z,0.00
2019-04-26T02:50:01.584Z,0.00
2019-04-26T02:51:01.582Z,0.00
2019-04-26T02:52:01.560Z,0.00
2019-04-26T02:53:01.555Z,0.00
2019-04-26T02:54:01.571Z,0.00
2019-04-26T02:55:01.521Z,0.00
2019-04-26T02:56:01.516Z,0.00
2019-04-26T02:57:01.494Z,0.00
2019-04-26T02:58:01.490Z,0.00
2019-04-26T02:59:01.483Z,0.00
2019-04-26T03:00:01.529Z,0.00
2019-04-26T03:01:01.487Z,0.00
2019-04-26T03:02:01.451Z,0.00
2019-04-26T03:03:01.481Z,0.00
2019-04-26T03:04:01.433Z,0.00
2019-04-26T03:05:01.490Z,0.00
2019-04-26T03:06:01.450Z,0.00
2019-04-26T03:07:03.628Z,0.00
2019-04-26T03:08:01.366Z,0.00
2019-04-26T03:09:01.400Z,0.00
2019-04-26T03:10:01.357Z,0.00
2019-04-26T03:11:01.344Z,0.00
2019-04-26T03:12:01.363Z,0.00
2019-04-26T03:13:01.320Z,0.00
2019-04-26T03:14:01.308Z,0.00
2019-04-26T03:15:13.427Z,0.00
2019-04-26T03:16:02.310Z,0.00
2019-04-26T03:17:01.278Z,0.00
2019-04-26T03:18:01.297Z,0.00
2019-04-26T03:19:01.265Z,0.00
2019-04-26T03:20:01.248Z,0.00
2019-04-26T03:21:01.245Z,0.00
2019-04-26T03:22:01.217Z,0.00
2019-04-26T03:23:01.219Z,0.00
2019-04-26T03:24:01.246Z,0.00
2019-04-26T03:25:01.212Z,0.00
2019-04-26T03:26:01.181Z,0.00
2019-04-26T03:27:01.084Z,0.00
2019-04-26T03:28:01.064Z,0.00
2019-04-26T03:29:01.185Z,0.00
2019-04-26T03:30:18.795Z,0.00
2019-04-26T03:31:02.037Z,0.00
2019-04-26T03:32:01.022Z,0.00
2019-04-26T03:33:01.098Z,0.00
2019-04-26T03:34:01.139Z,0.00
2019-04-26T03:35:00.988Z,0.00
2019-04-26T03:36:00.975Z,0.00
2019-04-26T03:37:00.976Z,0.00
2019-04-26T03:38:01.047Z,0.00
2019-04-26T03:39:01.030Z,0.00
2019-04-26T03:40:01.068Z,0.00
2019-04-26T03:41:00.907Z,0.00
2019-04-26T03:42:00.891Z,0.00
2019-04-26T03:43:00.891Z,0.00
2019-04-26T03:44:00.883Z,0.00
2019-04-26T03:45:00.853Z,0.00
2019-04-26T03:46:00.875Z,0.00
2019-04-26T03:47:00.837Z,0.00
2019-04-26T03:48:00.817Z,0.00
2019-04-26T03:49:00.828Z,0.00
2019-04-26T03:50:00.801Z,0.00
2019-04-26T03:51:00.796Z,0.00
2019-04-26T03:52:00.816Z,4.00
2019-04-26T03:53:00.758Z,4.00
2019-04-26T03:54:00.757Z,4.00
2019-04-26T03:55:00.766Z,0.00
2019-04-26T03:56:00.833Z,4.00
2019-04-26T03:57:00.736Z,4.00
2019-04-26T03:58:00.738Z,4.00
2019-04-26T03:59:00.802Z,4.00
2019-04-26T04:00:00.789Z,4.00
2019-04-26T04:01:00.662Z,4.00
2019-04-26T04:02:00.763Z,4.00
2019-04-26T04:03:00.810Z,4.00
2019-04-26T04:04:00.741Z,4.00
2019-04-26T04:05:00.733Z,8.00
2019-04-26T04:06:00.712Z,8.00
2019-04-26T04:07:04.946Z,4.00
2019-04-26T04:08:00.701Z,8.00
2019-04-26T04:09:00.615Z,8.00
2019-04-26T04:10:00.580Z,12.00
2019-04-26T04:11:00.659Z,8.00
2019-04-26T04:12:11.075Z,12.00
2019-04-26T04:13:01.627Z,8.00
2019-04-26T04:14:00.597Z,12.00
2019-04-26T04:15:00.550Z,12.00
2019-04-26T04:16:00.612Z,12.00
2019-04-26T04:17:00.504Z,12.00
2019-04-26T04:18:00.495Z,16.00
2019-04-26T04:19:00.614Z,16.00
2019-04-26T04:20:00.615Z,20.00
2019-04-26T04:21:00.572Z,20.00
2019-04-26T04:22:00.548Z,16.00
2019-04-26T04:23:00.428Z,20.00
2019-04-26T04:24:00.523Z,20.00
2019-04-26T04:25:00.557Z,20.00
2019-04-26T04:26:00.498Z,24.00
2019-04-26T04:27:00.489Z,24.00
2019-04-26T04:28:03.362Z,28.00
2019-04-26T04:29:00.490Z,28.00
2019-04-26T04:30:00.361Z,28.00
2019-04-26T04:31:00.484Z,28.00
2019-04-26T04:32:00.438Z,28.00
2019-04-26T04:33:00.428Z,32.00
2019-04-26T04:34:00.429Z,32.00
2019-04-26T04:35:00.404Z,32.00
2019-04-26T04:36:00.384Z,36.00
2019-04-26T04:37:00.411Z,32.00
2019-04-26T04:38:08.520Z,36.00
2019-04-26T04:39:11.319Z,36.00
2019-04-26T04:40:01.337Z,40.00
2019-04-26T04:41:00.347Z,40.00
2019-04-26T04:42:00.368Z,44.00
2019-04-26T04:43:00.443Z,44.00
2019-04-26T04:44:00.332Z,44.00
2019-04-26T04:45:00.299Z,44.00
2019-04-26T04:46:00.370Z,44.00
2019-04-26T04:47:00.300Z,48.00
2019-04-26T04:48:00.269Z,48.00
2019-04-26T04:49:00.290Z,52.00
2019-04-26T04:50:00.274Z,52.00
2019-04-26T04:51:00.227Z,52.00
2019-04-26T04:52:00.213Z,56.00
2019-04-26T04:53:00.209Z,56.00
2019-04-26T04:54:00.204Z,56.00
2019-04-26T04:55:07.145Z,60.00
2019-04-26T04:56:01.195Z,60.00
2019-04-26T04:57:00.167Z,60.00
2019-04-26T04:58:00.153Z,64.00
2019-04-26T04:59:00.144Z,64.00
2019-04-26T05:00:00.133Z,64.00
2019-04-26T05:01:00.104Z,64.00
2019-04-26T05:02:00.135Z,68.00
2019-04-26T05:03:00.087Z,68.00
2019-04-26T05:04:00.086Z,68.00
2019-04-26T05:05:00.069Z,68.00
2019-04-26T05:06:07.428Z,72.00
2019-04-26T05:07:01.074Z,72.00
2019-04-26T05:08:06.662Z,72.00
2019-04-26T05:09:01.032Z,76.00
2019-04-26T05:10:00.013Z,76.00
2019-04-26T05:10:59.913Z,76.00
2019-04-26T05:11:59.996Z,80.00
2019-04-26T05:12:59.976Z,80.00
2019-04-26T05:13:59.924Z,80.00
2019-04-26T05:14:59.951Z,84.00
2019-04-26T05:15:59.943Z,84.00
2019-04-26T05:16:59.829Z,88.00
2019-04-26T05:17:59.939Z,88.00
2019-04-26T05:18:59.955Z,88.00
2019-04-26T05:19:59.902Z,92.00
2019-04-26T05:20:59.903Z,92.00
2019-04-26T05:21:59.879Z,92.00
2019-04-26T05:22:59.782Z,96.00
2019-04-26T05:23:59.858Z,100.00
2019-04-26T05:24:59.888Z,100.00
2019-04-26T05:25:59.837Z,100.00
2019-04-26T05:26:59.826Z,104.00
2019-04-26T05:27:59.829Z,104.00
2019-04-26T05:28:59.810Z,108.00
2019-04-26T05:29:59.798Z,108.00
2019-04-26T05:30:59.820Z,112.00
2019-04-26T05:31:59.798Z,112.00
2019-04-26T05:32:59.779Z,112.00
2019-04-26T05:33:59.753Z,116.00
2019-04-26T05:34:59.735Z,116.00
2019-04-26T05:35:59.733Z,120.00
2019-04-26T05:36:59.624Z,124.00
2019-04-26T05:37:59.721Z,124.00
2019-04-26T05:38:59.703Z,128.00
2019-04-26T05:39:59.681Z,132.00
2019-04-26T05:40:59.581Z,136.00
2019-04-26T05:41:59.685Z,136.00
2019-04-26T05:42:59.652Z,140.00
2019-04-26T05:43:59.577Z,140.00
2019-04-26T05:44:59.646Z,140.00
2019-04-26T05:45:59.628Z,144.00
2019-04-26T05:46:59.605Z,144.00
2019-04-26T05:48:09.286Z,148.00
2019-04-26T05:49:00.613Z,148.00
2019-04-26T05:49:59.587Z,152.00
2019-04-26T05:50:59.576Z,156.00
2019-04-26T05:51:59.558Z,156.00
2019-04-26T05:52:59.787Z,160.00
2019-04-26T05:53:59.528Z,164.00
2019-04-26T05:54:59.548Z,172.00
2019-04-26T05:55:59.520Z,176.00
2019-04-26T05:56:59.555Z,200.00
2019-04-26T05:57:59.489Z,232.00
2019-04-26T05:59:01.210Z,256.00
2019-04-26T05:59:59.472Z,252.00
2019-04-26T06:00:59.473Z,260.00
2019-04-26T06:01:59.439Z,268.00
2019-04-26T06:02:59.478Z,272.00
2019-04-26T06:03:59.420Z,300.00
2019-04-26T06:04:59.307Z,328.00
2019-04-26T06:05:59.411Z,388.00
2019-04-26T06:06:59.394Z,428.00
2019-04-26T06:07:59.378Z,464.00
2019-04-26T06:08:59.674Z,472.00
2019-04-26T06:09:59.362Z,532.00
2019-04-26T06:11:00.011Z,516.00
2019-04-26T06:11:59.355Z,500.00
2019-04-26T06:12:59.314Z,528.00
2019-04-26T06:13:59.905Z,544.00
2019-04-26T06:14:59.226Z,552.00
2019-04-26T06:16:00.131Z,560.00
2019-04-26T06:16:59.312Z,568.00
2019-04-26T06:17:59.732Z,564.00
2019-04-26T06:18:59.721Z,572.00
2019-04-26T06:19:59.439Z,588.00
2019-04-26T06:20:59.797Z,580.00
2019-04-26T06:22:00.049Z,416.00
2019-04-26T06:22:59.742Z,336.00
2019-04-26T06:23:59.991Z,340.00
2019-04-26T06:25:00.384Z,300.00
2019-04-26T06:26:01.432Z,320.00
2019-04-26T06:27:11.868Z,344.00
2019-04-26T06:28:00.670Z,340.00
2019-04-26T06:28:59.153Z,312.00
2019-04-26T06:29:59.028Z,336.00
2019-04-26T06:30:59.366Z,328.00
2019-04-26T06:31:59.062Z,312.00
2019-04-26T06:33:03.239Z,436.00
2019-04-26T06:34:00.939Z,580.00
2019-04-26T06:34:59.319Z,544.00
2019-04-26T06:35:59.356Z,284.00
2019-04-26T06:36:59.726Z,240.00
2019-04-26T06:37:59.787Z,232.00
2019-04-26T06:38:59.928Z,228.00
2019-04-26T06:39:59.941Z,228.00
2019-04-26T06:40:59.024Z,232.00
2019-04-26T06:41:59.025Z,228.00
2019-04-26T06:42:59.034Z,244.00
2019-04-26T06:43:58.993Z,340.00
2019-04-26T06:44:58.973Z,380.00
2019-04-26T06:45:58.875Z,360.00
2019-04-26T06:46:59.805Z,492.00
2019-04-26T06:47:58.955Z,424.00
2019-04-26T06:48:59.015Z,568.00
2019-04-26T06:49:58.828Z,608.00
2019-04-26T06:50:59.771Z,500.00
2019-04-26T06:51:58.918Z,432.00
2019-04-26T06:52:58.879Z,464.00
2019-04-26T06:53:58.787Z,468.00
2019-04-26T06:54:59.709Z,424.00
2019-04-26T06:55:59.130Z,368.00
2019-04-26T06:57:07.944Z,484.00
2019-04-26T06:58:01.011Z,376.00
2019-04-26T06:58:59.261Z,376.00
2019-04-26T06:59:59.202Z,296.00
2019-04-26T07:00:59.041Z,336.00
2019-04-26T07:01:59.165Z,360.00
2019-04-26T07:02:58.948Z,316.00
2019-04-26T07:03:59.688Z,324.00
2019-04-26T07:04:59.364Z,316.00
2019-04-26T07:05:58.917Z,344.00
2019-04-26T07:06:59.928Z,388.00
2019-04-26T07:07:58.736Z,288.00
2019-04-26T07:09:00.555Z,280.00
2019-04-26T07:09:59.891Z,288.00
2019-04-26T07:10:59.584Z,296.00
2019-04-26T07:11:59.493Z,440.00
2019-04-26T07:12:59.616Z,444.00
2019-04-26T07:13:59.292Z,408.00
2019-04-26T07:14:59.478Z,412.00
2019-04-26T07:15:58.656Z,448.00
2019-04-26T07:16:59.720Z,416.00
2019-04-26T07:17:58.656Z,464.00
2019-04-26T07:18:58.651Z,444.00
2019-04-26T07:20:00.842Z,480.00
2019-04-26T07:21:00.471Z,512.00
2019-04-26T07:21:58.583Z,512.00
2019-04-26T07:22:59.371Z,632.00
2019-04-26T07:23:58.640Z,668.00
2019-04-26T07:25:00.008Z,672.00
2019-04-26T07:25:59.198Z,644.00
2019-04-26T07:26:58.529Z,340.00
2019-04-26T07:28:06.029Z,796.00
2019-04-26T07:29:01.143Z,768.00
2019-04-26T07:29:58.555Z,796.00
2019-04-26T07:30:58.486Z,780.00
2019-04-26T07:31:58.480Z,792.00
2019-04-26T07:32:58.460Z,776.00
2019-04-26T07:33:58.460Z,736.00
2019-04-26T07:34:58.487Z,780.00
2019-04-26T07:35:58.973Z,788.00
2019-04-26T07:36:58.316Z,784.00
2019-04-26T07:37:58.303Z,756.00
2019-04-26T07:39:10.434Z,640.00
2019-04-26T07:39:59.321Z,632.00
2019-04-26T07:40:58.286Z,772.00
2019-04-26T07:41:58.269Z,836.00
2019-04-26T07:42:58.262Z,616.00
2019-04-26T07:43:58.242Z,756.00
2019-04-26T07:44:58.247Z,472.00
2019-04-26T07:45:58.259Z,632.00
2019-04-26T07:46:58.208Z,496.00
2019-04-26T07:47:58.247Z,712.00
2019-04-26T07:48:58.187Z,580.00
2019-04-26T07:49:58.174Z,744.00
2019-04-26T07:50:58.177Z,776.00
2019-04-26T07:51:58.173Z,776.00
2019-04-26T07:52:58.161Z,816.00
2019-04-26T07:53:58.166Z,808.00
2019-04-26T07:54:58.119Z,792.00
2019-04-26T07:55:58.107Z,800.00
2019-04-26T07:56:58.110Z,848.00
2019-04-26T07:57:58.086Z,776.00
2019-04-26T07:58:58.086Z,796.00
2019-04-26T07:59:58.101Z,852.00
2019-04-26T08:00:58.096Z,800.00
2019-04-26T08:01:58.127Z,864.00
2019-04-26T08:02:58.049Z,776.00
2019-04-26T08:03:58.031Z,756.00
2019-04-26T08:04:58.033Z,764.00
2019-04-26T08:05:58.006Z,748.00
2019-04-26T08:06:58.022Z,776.00
2019-04-26T08:07:57.971Z,840.00
2019-04-26T08:08:57.992Z,836.00
2019-04-26T08:09:59.700Z,640.00
2019-04-26T08:10:57.947Z,600.00
2019-04-26T08:11:57.981Z,544.00
2019-04-26T08:12:57.938Z,488.00
2019-04-26T08:13:57.928Z,432.00
2019-04-26T08:14:57.897Z,456.00
2019-04-26T08:15:57.909Z,420.00
2019-04-26T08:16:57.982Z,440.00
2019-04-26T08:17:57.887Z,488.00
2019-04-26T08:18:57.870Z,528.00
2019-04-26T08:19:58.861Z,604.00
2019-04-26T08:20:57.847Z,644.00
2019-04-26T08:22:11.469Z,616.00
2019-04-26T08:23:02.755Z,616.00
2019-04-26T08:23:58.807Z,548.00
2019-04-26T08:24:57.804Z,668.00
2019-04-26T08:25:57.787Z,764.00
2019-04-26T08:27:08.276Z,740.00
2019-04-26T08:27:58.802Z,684.00
2019-04-26T08:29:00.548Z,644.00
2019-04-26T08:29:57.746Z,740.00
2019-04-26T08:30:57.745Z,996.00
2019-04-26T08:31:58.018Z,1008.00
2019-04-26T08:32:57.739Z,856.00
2019-04-26T08:33:57.713Z,888.00
2019-04-26T08:34:57.703Z,812.00
2019-04-26T08:35:57.703Z,880.00
2019-04-26T08:37:01.740Z,864.00
2019-04-26T08:37:58.696Z,688.00
2019-04-26T08:38:57.645Z,600.00
2019-04-26T08:39:57.647Z,660.00
2019-04-26T08:41:00.368Z,736.00
2019-04-26T08:41:58.633Z,708.00
2019-04-26T08:42:58.766Z,716.00
2019-04-26T08:43:59.786Z,744.00
2019-04-26T08:44:58.605Z,724.00
2019-04-26T08:46:03.216Z,740.00
2019-04-26T08:46:58.564Z,712.00
2019-04-26T08:47:57.558Z,728.00
2019-04-26T08:48:58.122Z,700.00
2019-04-26T08:49:57.562Z,676.00
2019-04-26T08:50:57.533Z,680.00
2019-04-26T08:51:57.594Z,708.00
2019-04-26T08:52:57.960Z,708.00
2019-04-26T08:53:57.497Z,748.00
2019-04-26T08:54:57.518Z,724.00
2019-04-26T08:55:57.466Z,688.00
2019-04-26T08:56:57.452Z,736.00
2019-04-26T08:57:57.443Z,724.00
2019-04-26T08:58:57.454Z,712.00
2019-04-26T08:59:57.447Z,712.00
2019-04-26T09:00:57.547Z,752.00
2019-04-26T09:01:57.552Z,752.00
2019-04-26T09:02:57.411Z,752.00
2019-04-26T09:03:57.487Z,728.00
2019-04-26T09:04:57.472Z,740.00
2019-04-26T09:05:57.465Z,752.00
2019-04-26T09:06:57.475Z,800.00
2019-04-26T09:07:58.842Z,804.00
2019-04-26T09:08:57.442Z,816.00
2019-04-26T09:10:01.374Z,784.00
2019-04-26T09:10:58.417Z,764.00
2019-04-26T09:11:59.773Z,732.00
2019-04-26T09:12:57.276Z,724.00
2019-04-26T09:13:57.309Z,724.00
2019-04-26T09:14:57.275Z,732.00
2019-04-26T09:15:57.285Z,732.00
2019-04-26T09:16:57.255Z,680.00
2019-04-26T09:17:57.241Z,644.00
2019-04-26T09:18:59.618Z,676.00
2019-04-26T09:19:58.254Z,680.00
2019-04-26T09:20:57.249Z,684.00
2019-04-26T09:21:59.161Z,676.00
2019-04-26T09:23:03.955Z,700.00
2019-04-26T09:23:58.170Z,684.00
2019-04-26T09:24:59.294Z,676.00
2019-04-26T09:25:59.357Z,676.00
2019-04-26T09:26:57.299Z,684.00
2019-04-26T09:27:58.959Z,692.00
2019-04-26T09:28:57.595Z,720.00
2019-04-26T09:30:00.489Z,736.00
2019-04-26T09:30:58.095Z,756.00
2019-04-26T09:31:57.082Z,704.00
2019-04-26T09:32:58.327Z,716.00
2019-04-26T09:33:57.056Z,704.00
2019-04-26T09:34:57.057Z,636.00
2019-04-26T09:35:57.051Z,712.00
2019-04-26T09:36:57.034Z,584.00
2019-04-26T09:37:57.021Z,508.00
2019-04-26T09:38:57.031Z,632.00
2019-04-26T09:40:09.360Z,548.00
2019-04-26T09:41:00.463Z,532.00
2019-04-26T09:41:56.982Z,560.00
2019-04-26T09:42:56.972Z,680.00
2019-04-26T09:43:58.764Z,696.00
2019-04-26T09:44:57.029Z,648.00
2019-04-26T09:45:56.926Z,636.00
2019-04-26T09:46:56.924Z,644.00
2019-04-26T09:47:56.904Z,664.00
2019-04-26T09:48:56.931Z,708.00
2019-04-26T09:49:56.884Z,660.00
2019-04-26T09:50:56.864Z,748.00
2019-04-26T09:51:56.866Z,708.00
2019-04-26T09:52:58.263Z,824.00
2019-04-26T09:53:56.824Z,704.00
2019-04-26T09:54:56.860Z,784.00
2019-04-26T09:55:56.823Z,884.00
2019-04-26T09:56:56.805Z,884.00
2019-04-26T09:57:57.072Z,584.00
2019-04-26T09:58:56.790Z,520.00
2019-04-26T09:59:56.800Z,532.00
2019-04-26T10:00:56.763Z,512.00
2019-04-26T10:01:59.406Z,604.00
2019-04-26T10:02:56.744Z,600.00
2019-04-26T10:03:56.727Z,568.00
2019-04-26T10:04:56.704Z,596.00
2019-04-26T10:05:57.084Z,568.00
2019-04-26T10:06:59.494Z,504.00
2019-04-26T10:07:56.684Z,524.00
2019-04-26T10:08:56.665Z,632.00
2019-04-26T10:10:00.773Z,656.00
2019-04-26T10:10:56.635Z,892.00
2019-04-26T10:11:56.658Z,992.00
2019-04-26T10:12:56.623Z,984.00
2019-04-26T10:13:56.604Z,936.00
2019-04-26T10:14:56.604Z,980.00
2019-04-26T10:15:58.097Z,920.00
2019-04-26T10:16:57.594Z,928.00
2019-04-26T10:17:56.571Z,920.00
2019-04-26T10:18:58.329Z,928.00
2019-04-26T10:19:56.573Z,920.00
2019-04-26T10:20:56.584Z,972.00
2019-04-26T10:21:56.575Z,952.00
2019-04-26T10:22:56.526Z,980.00
2019-04-26T10:23:56.510Z,956.00
2019-04-26T10:24:56.485Z,1004.00
2019-04-26T10:25:56.491Z,952.00
2019-04-26T10:26:59.244Z,976.00
2019-04-26T10:27:56.499Z,964.00
2019-04-26T10:28:56.446Z,980.00
2019-04-26T10:30:07.438Z,968.00
2019-04-26T10:30:57.418Z,976.00
2019-04-26T10:31:56.410Z,944.00
2019-04-26T10:32:58.248Z,936.00
2019-04-26T10:33:57.426Z,956.00
2019-04-26T10:34:56.383Z,980.00
2019-04-26T10:35:56.825Z,1000.00
2019-04-26T10:36:57.139Z,984.00
2019-04-26T10:37:56.354Z,1008.00
2019-04-26T10:38:58.397Z,912.00
2019-04-26T10:39:56.356Z,944.00
2019-04-26T10:40:56.332Z,972.00
2019-04-26T10:41:56.311Z,952.00
2019-04-26T10:42:56.302Z,880.00
2019-04-26T10:43:56.303Z,916.00
2019-04-26T10:44:56.275Z,868.00
2019-04-26T10:45:56.311Z,868.00
2019-04-26T10:46:59.776Z,908.00
2019-04-26T10:47:57.262Z,972.00
2019-04-26T10:49:08.243Z,1020.00
2019-04-26T10:49:58.148Z,996.00
2019-04-26T10:50:56.315Z,1160.00
2019-04-26T10:51:56.247Z,1132.00
2019-04-26T10:52:56.297Z,1104.00
2019-04-26T10:53:56.180Z,1188.00
2019-04-26T10:54:56.169Z,1176.00
2019-04-26T10:55:56.251Z,1168.00
2019-04-26T10:56:56.137Z,1148.00
2019-04-26T10:57:56.306Z,1136.00
2019-04-26T10:58:56.133Z,1120.00
2019-04-26T10:59:56.115Z,1128.00
2019-04-26T11:00:56.111Z,1132.00
2019-04-26T11:01:56.106Z,1124.00
2019-04-26T11:02:56.074Z,1136.00
2019-04-26T11:03:56.113Z,1132.00
2019-04-26T11:04:56.101Z,1132.00
2019-04-26T11:05:56.151Z,1128.00
2019-04-26T11:06:58.123Z,1132.00
2019-04-26T11:07:57.024Z,1148.00
2019-04-26T11:08:56.118Z,1152.00
2019-04-26T11:09:56.006Z,1148.00
2019-04-26T11:10:56.134Z,1124.00
2019-04-26T11:11:56.024Z,1136.00
2019-04-26T11:12:56.071Z,1140.00
2019-04-26T11:13:57.523Z,1132.00
2019-04-26T11:14:56.969Z,1132.00
2019-04-26T11:15:55.942Z,1128.00
2019-04-26T11:16:55.935Z,1128.00
2019-04-26T11:17:56.066Z,1132.00
2019-04-26T11:18:57.176Z,1136.00
2019-04-26T11:19:55.909Z,1132.00
2019-04-26T11:20:55.900Z,1136.00
2019-04-26T11:21:56.047Z,1152.00
2019-04-26T11:22:55.994Z,1144.00
2019-04-26T11:23:55.988Z,1156.00
2019-04-26T11:24:55.922Z,1164.00
2019-04-26T11:25:57.975Z,852.00
2019-04-26T11:26:56.838Z,540.00
2019-04-26T11:27:55.931Z,1084.00
2019-04-26T11:28:57.161Z,1092.00
2019-04-26T11:29:59.662Z,1148.00
2019-04-26T11:30:57.490Z,1184.00
2019-04-26T11:31:58.415Z,1216.00
2019-04-26T11:32:56.874Z,1252.00
2019-04-26T11:34:05.046Z,852.00
2019-04-26T11:34:58.774Z,492.00
2019-04-26T11:35:55.841Z,444.00
2019-04-26T11:36:55.746Z,408.00
2019-04-26T11:37:56.967Z,380.00
2019-04-26T11:38:55.796Z,372.00
2019-04-26T11:39:55.704Z,392.00
2019-04-26T11:41:05.956Z,428.00
2019-04-26T11:41:56.673Z,428.00
2019-04-26T11:42:55.768Z,580.00
2019-04-26T11:43:55.881Z,1088.00
2019-04-26T11:45:05.765Z,468.00
2019-04-26T11:46:04.132Z,444.00
2019-04-26T11:46:59.436Z,424.00
2019-04-26T11:47:56.773Z,432.00
2019-04-26T11:48:59.236Z,548.00
2019-04-26T11:49:55.669Z,536.00
2019-04-26T11:50:55.666Z,468.00
2019-04-26T11:51:58.530Z,488.00
2019-04-26T11:52:56.648Z,500.00
2019-04-26T11:53:55.632Z,496.00
2019-04-26T11:54:56.243Z,544.00
2019-04-26T11:55:55.657Z,676.00
2019-04-26T11:56:55.517Z,608.00
2019-04-26T11:57:55.594Z,584.00
2019-04-26T11:58:56.903Z,616.00
2019-04-26T11:59:55.478Z,608.00
2019-04-26T12:00:55.565Z,552.00
2019-04-26T12:01:55.480Z,536.00
2019-04-26T12:02:55.538Z,564.00
2019-04-26T12:03:59.267Z,656.00
2019-04-26T12:04:55.409Z,612.00
2019-04-26T12:05:55.509Z,660.00
2019-04-26T12:06:55.423Z,612.00
2019-04-26T12:07:55.393Z,552.00
2019-04-26T12:08:55.375Z,516.00
2019-04-26T12:09:55.363Z,432.00
2019-04-26T12:10:55.361Z,372.00
2019-04-26T12:12:04.525Z,320.00
2019-04-26T12:13:05.482Z,292.00
2019-04-26T12:13:59.492Z,280.00
2019-04-26T12:14:55.315Z,280.00
2019-04-26T12:15:55.306Z,272.00
2019-04-26T12:16:59.907Z,264.00
2019-04-26T12:17:58.642Z,252.00
2019-04-26T12:18:55.275Z,248.00
2019-04-26T12:19:55.254Z,240.00
2019-04-26T12:20:57.112Z,244.00
2019-04-26T12:21:56.284Z,244.00
2019-04-26T12:22:55.334Z,240.00
2019-04-26T12:23:55.767Z,232.00
2019-04-26T12:24:55.298Z,224.00
2019-04-26T12:25:55.184Z,212.00
2019-04-26T12:26:55.910Z,200.00
2019-04-26T12:27:55.293Z,188.00
2019-04-26T12:28:56.052Z,184.00
2019-04-26T12:29:55.153Z,176.00
2019-04-26T12:30:58.567Z,176.00
2019-04-26T12:31:55.133Z,176.00
2019-04-26T12:32:55.127Z,176.00
2019-04-26T12:33:55.150Z,172.00
2019-04-26T12:34:55.097Z,172.00
2019-04-26T12:35:57.120Z,168.00
2019-04-26T12:36:55.076Z,168.00
2019-04-26T12:37:55.842Z,168.00
2019-04-26T12:38:58.266Z,172.00
2019-04-26T12:39:56.184Z,176.00
2019-04-26T12:40:55.027Z,176.00
2019-04-26T12:41:55.057Z,168.00
2019-04-26T12:42:55.118Z,160.00
2019-04-26T12:43:59.593Z,152.00
2019-04-26T12:44:56.003Z,144.00